Archival Weather

Chicago O'Hare International

Chicago, Illinois (KORD)

Report from: Saturday, November 5, 2022 11:51 PM CDT
Current time: Saturday, March 2, 2024 4:32 AM CST

Current weather – Weather history – Daily summaries
Weather forecast

Temperature7.2°C (45.0°F)
Wind chill4.0°C (39.2°F)
Dew point2.8°C (37.0°F)
Winds 10 kts (5.1 m/s, 11.5 mph) South-Southwest (200°)
Wind gusts 18 kts (9.3 m/s, 20.7 mph)
Visibility10 mi. (16.1 km)
Clouds Few clouds 23,000 ft. (7,010 m)
Altimeter29.78 in.Hg (1008 mB)
Relative humidity74 %
Density altitude-659 ft. (-201 m)
Sea-level pressure100.8 kPa (1008 mB, 29.78 in.Hg)
Remarks Automated weather observing station with precipitation discriminator
Flight conditions Visual Meteorological Conditions
Raw dataKORD 060451Z 20010G18KT 10SM FEW230 07/03 A2978 RMK AO2 SLP083 T00720028
An error has occurred. This application may no longer respond until reloaded. Reload 🗙